Accueil
METAR-TAF:

METAR-TAF

Aéroports :

Aéroport international du Caire

Le Caire, Égypte

latitude: 30-08N, longitude: 031-24E, altitude: 64 m

Observation

Le bulletin a été fait il y a 28 minutes, à 04:30 UTC
Vent calme
Température 21°C
Humidité 83%
Pression 1014 hPa
Visibilité: 3000 m
brume

METAR: HECA 190430Z 00000KT 3000 BR NSC 21/18 Q1014 NOSIG

Heure: 06:58 (04:58 UTC)

Prévision

Le bulletin a été fait il y a 5 heures et 58 minutes, à 23:00 UTC
Prévision valable du 19 à 00 UTC au 20 à 06 UTC
Vent 5 kt de nord/nord-est
Visibilité: 6000 m
Temporairement
du 19 à 01 UTC au 19 à 08 UTC
Visibilité: 4000 m
brume
Temporairement
du 19 à 03 UTC au 19 à 06 UTC
Visibilité: 2000 m
Evoluant progressivement
du 19 à 09 UTC au 19 à 11 UTC
Visibilité 10 km ou plus
Nuages épars à une hauteur de 2500 ft

TAF: HECA 182300Z 1900/2006 03005KT 6000 NSC TEMPO 1901/1908 4000 BR TEMPO 1903/1906 2000 BECMG 1909/1911 9999 SCT025

Observations et prévisions météorologiques de plus de 4000 aéroports (messages METAR et TAF).

Les stations disponibles sont représentées par des disques jaunes et rouges sur la carte.

Passer la souris dessus pour voir le nom de la station.

Cliquer dessus pour voir les observations et prévisions météorologiques.

Pour changer de carte: cliquez sur les boutons verts avec une croix noire pour zoomer, sur le bouton vert avec un tiret pour effectuer un zoom arrière, ou sur les flèches vertes pour les cartes adjacentes.


METAR-TAF: